sensor_id;sensor_type;location;lat;lon;timestamp;P1;durP1;ratioP1;P2;durP2;ratioP2
41532;SDS011;27262;-35.248;149.138;2022-09-01T00:00:07;3.55;;;0.57;;
41532;SDS011;27262;-35.248;149.138;2022-09-01T00:02:42;1.55;;;0.40;;
41532;SDS011;27262;-35.248;149.138;2022-09-01T00:05:12;1.80;;;0.77;;
41532;SDS011;27262;-35.248;149.138;2022-09-01T00:07:43;0.60;;;0.60;;
41532;SDS011;27262;-35.248;149.138;2022-09-01T00:10:13;2.08;;;0.98;;
41532;SDS011;27262;-35.248;149.138;2022-09-01T00:12:44;2.22;;;0.77;;
41532;SDS011;27262;-35.248;149.138;2022-09-01T00:15:14;1.60;;;0.90;;
41532;SDS011;27262;-35.248;149.138;2022-09-01T00:17:45;3.20;;;1.02;;
41532;SDS011;27262;-35.248;149.138;2022-09-01T00:20:15;1.77;;;0.80;;
41532;SDS011;27262;-35.248;149.138;2022-09-01T00:25:35;1.55;;;0.60;;
41532;SDS011;27262;-35.248;149.138;2022-09-01T00:28:05;2.88;;;0.82;;
41532;SDS011;27262;-35.248;149.138;2022-09-01T00:30:35;1.35;;;0.65;;
41532;SDS011;27262;-35.248;149.138;2022-09-01T00:33:06;2.35;;;0.90;;
41532;SDS011;27262;-35.248;149.138;2022-09-01T00:35:36;1.98;;;0.80;;
41532;SDS011;27262;-35.248;149.138;2022-09-01T00:38:06;1.83;;;0.95;;
41532;SDS011;27262;-35.248;149.138;2022-09-01T00:40:37;5.28;;;1.20;;
41532;SDS011;27262;-35.248;149.138;2022-09-01T00:43:11;2.72;;;0.85;;
41532;SDS011;27262;-35.248;149.138;2022-09-01T00:46:04;2.45;;;1.15;;
41532;SDS011;27262;-35.248;149.138;2022-09-01T00:48:38;2.63;;;0.80;;
41532;SDS011;27262;-35.248;149.138;2022-09-01T00:51:10;2.67;;;0.65;;
41532;SDS011;27262;-35.248;149.138;2022-09-01T00:53:41;0.77;;;0.50;;
41532;SDS011;27262;-35.248;149.138;2022-09-01T00:56:13;3.83;;;0.73;;
41532;SDS011;27262;-35.248;149.138;2022-09-01T00:58:44;2.95;;;0.80;;
41532;SDS011;27262;-35.248;149.138;2022-09-01T01:01:14;1.95;;;0.60;;
41532;SDS011;27262;-35.248;149.138;2022-09-01T01:03:44;1.65;;;0.60;;
41532;SDS011;27262;-35.248;149.138;2022-09-01T01:06:15;1.33;;;0.70;;
41532;SDS011;27262;-35.248;149.138;2022-09-01T01:08:46;2.65;;;0.70;;
41532;SDS011;27262;-35.248;149.138;2022-09-01T01:11:29;3.63;;;0.80;;
41532;SDS011;27262;-35.248;149.138;2022-09-01T01:14:02;4.47;;;0.63;;
41532;SDS011;27262;-35.248;149.138;2022-09-01T01:16:40;1.83;;;0.55;;
41532;SDS011;27262;-35.248;149.138;2022-09-01T01:19:47;6.82;;;0.80;;
41532;SDS011;27262;-35.248;149.138;2022-09-01T01:25:35;1.63;;;0.60;;
41532;SDS011;27262;-35.248;149.138;2022-09-01T01:28:31;6.57;;;0.88;;
41532;SDS011;27262;-35.248;149.138;2022-09-01T01:31:08;2.20;;;0.70;;
41532;SDS011;27262;-35.248;149.138;2022-09-01T01:33:43;2.42;;;0.70;;
41532;SDS011;27262;-35.248;149.138;2022-09-01T01:36:17;2.47;;;0.75;;
41532;SDS011;27262;-35.248;149.138;2022-09-01T01:39:14;0.93;;;0.50;;
41532;SDS011;27262;-35.248;149.138;2022-09-01T01:41:48;2.50;;;0.65;;
41532;SDS011;27262;-35.248;149.138;2022-09-01T01:44:21;1.90;;;0.60;;
41532;SDS011;27262;-35.248;149.138;2022-09-01T01:46:55;4.75;;;0.85;;
41532;SDS011;27262;-35.248;149.138;2022-09-01T01:49:26;0.50;;;0.50;;
41532;SDS011;27262;-35.248;149.138;2022-09-01T01:51:58;4.35;;;0.80;;
41532;SDS011;27262;-35.248;149.138;2022-09-01T01:54:32;1.20;;;0.60;;
41532;SDS011;27262;-35.248;149.138;2022-09-01T01:57:02;2.08;;;0.60;;
41532;SDS011;27262;-35.248;149.138;2022-09-01T01:59:32;1.42;;;0.40;;
41532;SDS011;27262;-35.248;149.138;2022-09-01T02:02:03;1.58;;;0.52;;
41532;SDS011;27262;-35.248;149.138;2022-09-01T02:04:36;3.90;;;0.60;;
41532;SDS011;27262;-35.248;149.138;2022-09-01T02:07:09;5.18;;;0.68;;
41532;SDS011;27262;-35.248;149.138;2022-09-01T02:09:41;4.80;;;0.60;;
41532;SDS011;27262;-35.248;149.138;2022-09-01T02:12:13;10.32;;;0.93;;
41532;SDS011;27262;-35.248;149.138;2022-09-01T02:14:46;10.63;;;0.70;;
41532;SDS011;27262;-35.248;149.138;2022-09-01T02:17:17;2.63;;;0.90;;
41532;SDS011;27262;-35.248;149.138;2022-09-01T02:19:48;0.63;;;0.40;;
41532;SDS011;27262;-35.248;149.138;2022-09-01T02:22:24;2.72;;;0.60;;
41532;SDS011;27262;-35.248;149.138;2022-09-01T02:24:55;2.75;;;0.52;;
41532;SDS011;27262;-35.248;149.138;2022-09-01T02:27:28;2.08;;;0.43;;
41532;SDS011;27262;-35.248;149.138;2022-09-01T02:30:02;1.20;;;0.40;;
41532;SDS011;27262;-35.248;149.138;2022-09-01T02:32:37;1.05;;;0.40;;
41532;SDS011;27262;-35.248;149.138;2022-09-01T02:35:09;2.50;;;0.55;;
41532;SDS011;27262;-35.248;149.138;2022-09-01T02:37:40;2.30;;;0.40;;
41532;SDS011;27262;-35.248;149.138;2022-09-01T02:40:11;0.40;;;0.40;;
41532;SDS011;27262;-35.248;149.138;2022-09-01T02:42:43;1.27;;;0.50;;
41532;SDS011;27262;-35.248;149.138;2022-09-01T02:45:15;1.05;;;0.60;;
41532;SDS011;27262;-35.248;149.138;2022-09-01T02:47:47;2.28;;;0.80;;
41532;SDS011;27262;-35.248;149.138;2022-09-01T02:50:18;2.03;;;0.60;;
41532;SDS011;27262;-35.248;149.138;2022-09-01T02:52:50;1.17;;;0.40;;
41532;SDS011;27262;-35.248;149.138;2022-09-01T02:55:23;3.33;;;0.52;;
41532;SDS011;27262;-35.248;149.138;2022-09-01T02:57:54;1.48;;;0.50;;
41532;SDS011;27262;-35.248;149.138;2022-09-01T03:00:24;1.70;;;0.40;;
41532;SDS011;27262;-35.248;149.138;2022-09-01T03:03:01;1.33;;;0.50;;
41532;SDS011;27262;-35.248;149.138;2022-09-01T03:05:32;0.60;;;0.50;;
41532;SDS011;27262;-35.248;149.138;2022-09-01T03:08:08;5.75;;;0.93;;
41532;SDS011;27262;-35.248;149.138;2022-09-01T03:11:00;3.45;;;0.50;;
41532;SDS011;27262;-35.248;149.138;2022-09-01T03:13:34;2.97;;;0.60;;
41532;SDS011;27262;-35.248;149.138;2022-09-01T03:16:05;0.98;;;0.52;;
41532;SDS011;27262;-35.248;149.138;2022-09-01T03:18:37;2.83;;;0.50;;
41532;SDS011;27262;-35.248;149.138;2022-09-01T03:21:08;5.60;;;0.50;;
41532;SDS011;27262;-35.248;149.138;2022-09-01T03:23:45;2.38;;;0.57;;
41532;SDS011;27262;-35.248;149.138;2022-09-01T03:26:16;0.80;;;0.50;;
41532;SDS011;27262;-35.248;149.138;2022-09-01T03:28:50;2.20;;;0.52;;
41532;SDS011;27262;-35.248;149.138;2022-09-01T03:31:20;3.05;;;0.50;;
41532;SDS011;27262;-35.248;149.138;2022-09-01T03:33:57;4.00;;;0.45;;
41532;SDS011;27262;-35.248;149.138;2022-09-01T03:36:28;3.17;;;0.50;;
41532;SDS011;27262;-35.248;149.138;2022-09-01T03:39:00;1.65;;;0.63;;
41532;SDS011;27262;-35.248;149.138;2022-09-01T03:41:31;0.70;;;0.47;;
41532;SDS011;27262;-35.248;149.138;2022-09-01T03:44:04;3.00;;;0.50;;
41532;SDS011;27262;-35.248;149.138;2022-09-01T03:46:38;1.00;;;0.60;;
41532;SDS011;27262;-35.248;149.138;2022-09-01T03:49:09;1.92;;;0.38;;
41532;SDS011;27262;-35.248;149.138;2022-09-01T03:51:43;1.42;;;0.50;;
41532;SDS011;27262;-35.248;149.138;2022-09-01T03:54:13;4.18;;;0.57;;
41532;SDS011;27262;-35.248;149.138;2022-09-01T03:56:45;3.28;;;0.50;;
41532;SDS011;27262;-35.248;149.138;2022-09-01T03:59:15;1.35;;;0.40;;
41532;SDS011;27262;-35.248;149.138;2022-09-01T04:01:47;0.63;;;0.43;;
41532;SDS011;27262;-35.248;149.138;2022-09-01T04:04:17;1.98;;;0.40;;
41532;SDS011;27262;-35.248;149.138;2022-09-01T04:06:48;1.27;;;0.55;;
41532;SDS011;27262;-35.248;149.138;2022-09-01T04:09:18;2.30;;;0.45;;
41532;SDS011;27262;-35.248;149.138;2022-09-01T04:11:49;1.95;;;0.45;;
41532;SDS011;27262;-35.248;149.138;2022-09-01T04:14:20;0.98;;;0.50;;
41532;SDS011;27262;-35.248;149.138;2022-09-01T04:16:55;1.42;;;0.55;;
41532;SDS011;27262;-35.248;149.138;2022-09-01T04:19:43;0.30;;;0.20;;
41532;SDS011;27262;-35.248;149.138;2022-09-01T04:22:14;0.50;;;0.40;;
41532;SDS011;27262;-35.248;149.138;2022-09-01T04:24:45;1.90;;;0.40;;
41532;SDS011;27262;-35.248;149.138;2022-09-01T04:27:15;1.20;;;0.40;;
41532;SDS011;27262;-35.248;149.138;2022-09-01T04:29:45;0.30;;;0.30;;
41532;SDS011;27262;-35.248;149.138;2022-09-01T04:32:15;1.85;;;0.40;;
41532;SDS011;27262;-35.248;149.138;2022-09-01T04:34:49;2.33;;;0.50;;
41532;SDS011;27262;-35.248;149.138;2022-09-01T04:37:19;2.15;;;0.40;;
41532;SDS011;27262;-35.248;149.138;2022-09-01T04:39:51;2.25;;;0.57;;
41532;SDS011;27262;-35.248;149.138;2022-09-01T04:42:24;2.83;;;0.57;;
41532;SDS011;27262;-35.248;149.138;2022-09-01T04:44:56;5.20;;;0.60;;
41532;SDS011;27262;-35.248;149.138;2022-09-01T04:47:36;0.95;;;0.50;;
41532;SDS011;27262;-35.248;149.138;2022-09-01T04:50:09;2.03;;;0.45;;
41532;SDS011;27262;-35.248;149.138;2022-09-01T04:52:44;0.50;;;0.32;;
41532;SDS011;27262;-35.248;149.138;2022-09-01T04:55:18;0.75;;;0.40;;
41532;SDS011;27262;-35.248;149.138;2022-09-01T04:57:48;1.02;;;0.50;;
41532;SDS011;27262;-35.248;149.138;2022-09-01T05:00:20;2.25;;;0.40;;
41532;SDS011;27262;-35.248;149.138;2022-09-01T05:02:51;0.73;;;0.50;;
41532;SDS011;27262;-35.248;149.138;2022-09-01T05:05:24;1.85;;;0.30;;
41532;SDS011;27262;-35.248;149.138;2022-09-01T05:07:55;0.88;;;0.47;;
41532;SDS011;27262;-35.248;149.138;2022-09-01T05:10:26;2.72;;;0.40;;
41532;SDS011;27262;-35.248;149.138;2022-09-01T05:12:57;1.60;;;0.47;;
41532;SDS011;27262;-35.248;149.138;2022-09-01T05:15:29;0.47;;;0.40;;
41532;SDS011;27262;-35.248;149.138;2022-09-01T05:18:00;0.43;;;0.43;;
41532;SDS011;27262;-35.248;149.138;2022-09-01T05:20:40;0.55;;;0.40;;
41532;SDS011;27262;-35.248;149.138;2022-09-01T05:23:11;2.97;;;0.43;;
41532;SDS011;27262;-35.248;149.138;2022-09-01T05:25:49;2.28;;;0.50;;
41532;SDS011;27262;-35.248;149.138;2022-09-01T05:28:22;0.73;;;0.50;;
41532;SDS011;27262;-35.248;149.138;2022-09-01T05:30:52;1.75;;;0.50;;
41532;SDS011;27262;-35.248;149.138;2022-09-01T05:33:23;0.88;;;0.40;;
41532;SDS011;27262;-35.248;149.138;2022-09-01T05:35:54;0.30;;;0.30;;
41532;SDS011;27262;-35.248;149.138;2022-09-01T05:38:29;1.20;;;0.40;;
41532;SDS011;27262;-35.248;149.138;2022-09-01T05:41:02;1.65;;;0.35;;
41532;SDS011;27262;-35.248;149.138;2022-09-01T05:43:36;4.80;;;1.10;;
41532;SDS011;27262;-35.248;149.138;2022-09-01T05:46:06;3.03;;;0.40;;
41532;SDS011;27262;-35.248;149.138;2022-09-01T05:48:39;1.13;;;0.43;;
41532;SDS011;27262;-35.248;149.138;2022-09-01T05:51:10;0.50;;;0.40;;
41532;SDS011;27262;-35.248;149.138;2022-09-01T05:54:05;1.45;;;0.57;;
41532;SDS011;27262;-35.248;149.138;2022-09-01T05:56:37;2.92;;;0.40;;
41532;SDS011;27262;-35.248;149.138;2022-09-01T05:59:11;2.28;;;0.70;;
41532;SDS011;27262;-35.248;149.138;2022-09-01T06:01:51;0.63;;;0.30;;
41532;SDS011;27262;-35.248;149.138;2022-09-01T06:04:23;2.83;;;0.60;;
41532;SDS011;27262;-35.248;149.138;2022-09-01T06:06:54;2.25;;;0.40;;
41532;SDS011;27262;-35.248;149.138;2022-09-01T06:09:37;2.78;;;0.60;;
41532;SDS011;27262;-35.248;149.138;2022-09-01T06:12:09;12.77;;;0.90;;
41532;SDS011;27262;-35.248;149.138;2022-09-01T06:14:45;4.20;;;0.90;;
41532;SDS011;27262;-35.248;149.138;2022-09-01T06:17:16;3.33;;;0.50;;
41532;SDS011;27262;-35.248;149.138;2022-09-01T06:19:52;2.28;;;0.40;;
41532;SDS011;27262;-35.248;149.138;2022-09-01T06:22:24;1.10;;;0.63;;
41532;SDS011;27262;-35.248;149.138;2022-09-01T06:24:56;0.70;;;0.50;;
41532;SDS011;27262;-35.248;149.138;2022-09-01T06:27:28;8.52;;;0.80;;
41532;SDS011;27262;-35.248;149.138;2022-09-01T06:30:00;1.63;;;0.40;;
41532;SDS011;27262;-35.248;149.138;2022-09-01T06:32:32;2.05;;;0.80;;
41532;SDS011;27262;-35.248;149.138;2022-09-01T06:35:06;1.10;;;0.50;;
41532;SDS011;27262;-35.248;149.138;2022-09-01T06:37:39;1.00;;;0.50;;
41532;SDS011;27262;-35.248;149.138;2022-09-01T06:40:12;1.48;;;0.57;;
41532;SDS011;27262;-35.248;149.138;2022-09-01T06:42:47;0.95;;;0.30;;
41532;SDS011;27262;-35.248;149.138;2022-09-01T06:45:20;1.25;;;0.40;;
41532;SDS011;27262;-35.248;149.138;2022-09-01T06:47:52;1.42;;;0.45;;
41532;SDS011;27262;-35.248;149.138;2022-09-01T06:50:26;2.20;;;0.52;;
41532;SDS011;27262;-35.248;149.138;2022-09-01T06:53:17;0.50;;;0.50;;
41532;SDS011;27262;-35.248;149.138;2022-09-01T06:56:05;0.20;;;0.20;;
41532;SDS011;27262;-35.248;149.138;2022-09-01T06:58:41;0.40;;;0.40;;
41532;SDS011;27262;-35.248;149.138;2022-09-01T07:01:16;0.82;;;0.40;;
41532;SDS011;27262;-35.248;149.138;2022-09-01T07:03:50;0.70;;;0.47;;
41532;SDS011;27262;-35.248;149.138;2022-09-01T07:06:23;2.38;;;0.30;;
41532;SDS011;27262;-35.248;149.138;2022-09-01T07:09:18;1.60;;;0.30;;
41532;SDS011;27262;-35.248;149.138;2022-09-01T07:12:08;0.70;;;0.40;;
41532;SDS011;27262;-35.248;149.138;2022-09-01T07:14:54;1.45;;;0.43;;
41532;SDS011;27262;-35.248;149.138;2022-09-01T07:17:47;0.93;;;0.50;;
41532;SDS011;27262;-35.248;149.138;2022-09-01T07:20:21;0.75;;;0.30;;
41532;SDS011;27262;-35.248;149.138;2022-09-01T07:22:55;0.85;;;0.30;;
41532;SDS011;27262;-35.248;149.138;2022-09-01T07:25:30;2.88;;;0.55;;
41532;SDS011;27262;-35.248;149.138;2022-09-01T07:28:23;2.13;;;0.60;;
41532;SDS011;27262;-35.248;149.138;2022-09-01T07:31:04;0.40;;;0.40;;
41532;SDS011;27262;-35.248;149.138;2022-09-01T07:33:58;0.98;;;0.50;;
41532;SDS011;27262;-35.248;149.138;2022-09-01T07:36:51;0.88;;;0.40;;
41532;SDS011;27262;-35.248;149.138;2022-09-01T07:39:46;1.88;;;0.40;;
41532;SDS011;27262;-35.248;149.138;2022-09-01T07:42:18;2.85;;;0.40;;
41532;SDS011;27262;-35.248;149.138;2022-09-01T07:45:10;1.85;;;0.40;;
41532;SDS011;27262;-35.248;149.138;2022-09-01T07:47:57;3.60;;;0.45;;
41532;SDS011;27262;-35.248;149.138;2022-09-01T07:50:31;3.05;;;0.35;;
41532;SDS011;27262;-35.248;149.138;2022-09-01T07:53:25;3.00;;;0.70;;
41532;SDS011;27262;-35.248;149.138;2022-09-01T07:56:05;2.67;;;0.35;;
41532;SDS011;27262;-35.248;149.138;2022-09-01T07:58:38;1.95;;;0.40;;
41532;SDS011;27262;-35.248;149.138;2022-09-01T08:01:14;1.65;;;0.50;;
41532;SDS011;27262;-35.248;149.138;2022-09-01T08:03:51;0.82;;;0.40;;
41532;SDS011;27262;-35.248;149.138;2022-09-01T08:06:25;0.43;;;0.30;;
41532;SDS011;27262;-35.248;149.138;2022-09-01T08:09:04;2.15;;;0.47;;
41532;SDS011;27262;-35.248;149.138;2022-09-01T08:11:38;1.00;;;0.43;;
41532;SDS011;27262;-35.248;149.138;2022-09-01T08:14:28;0.28;;;0.28;;
41532;SDS011;27262;-35.248;149.138;2022-09-01T08:17:00;1.55;;;0.40;;
41532;SDS011;27262;-35.248;149.138;2022-09-01T08:19:50;4.18;;;0.80;;
41532;SDS011;27262;-35.248;149.138;2022-09-01T08:22:22;3.50;;;0.40;;
41532;SDS011;27262;-35.248;149.138;2022-09-01T08:24:53;1.65;;;0.50;;
41532;SDS011;27262;-35.248;149.138;2022-09-01T08:27:23;0.70;;;0.60;;
41532;SDS011;27262;-35.248;149.138;2022-09-01T08:29:54;1.00;;;0.60;;
41532;SDS011;27262;-35.248;149.138;2022-09-01T08:32:24;1.33;;;0.50;;
41532;SDS011;27262;-35.248;149.138;2022-09-01T08:34:55;1.17;;;0.47;;
41532;SDS011;27262;-35.248;149.138;2022-09-01T08:37:26;1.75;;;0.50;;
41532;SDS011;27262;-35.248;149.138;2022-09-01T08:39:56;0.73;;;0.40;;
41532;SDS011;27262;-35.248;149.138;2022-09-01T08:47:51;1.30;;;0.68;;
41532;SDS011;27262;-35.248;149.138;2022-09-01T08:50:44;1.48;;;0.60;;
41532;SDS011;27262;-35.248;149.138;2022-09-01T08:53:25;5.03;;;1.00;;
41532;SDS011;27262;-35.248;149.138;2022-09-01T08:56:11;2.10;;;1.10;;
41532;SDS011;27262;-35.248;149.138;2022-09-01T08:58:43;3.28;;;1.17;;
41532;SDS011;27262;-35.248;149.138;2022-09-01T09:01:19;3.15;;;1.00;;
41532;SDS011;27262;-35.248;149.138;2022-09-01T09:10:20;1.40;;;1.30;;
41532;SDS011;27262;-35.248;149.138;2022-09-01T09:13:18;6.10;;;1.85;;
41532;SDS011;27262;-35.248;149.138;2022-09-01T09:16:45;4.57;;;1.58;;
41532;SDS011;27262;-35.248;149.138;2022-09-01T09:19:04;5.07;;;1.40;;
41532;SDS011;27262;-35.248;149.138;2022-09-01T09:21:48;1.35;;;1.00;;
41532;SDS011;27262;-35.248;149.138;2022-09-01T09:30:19;3.92;;;1.20;;
41532;SDS011;27262;-35.248;149.138;2022-09-01T09:32:54;1.58;;;1.13;;
41532;SDS011;27262;-35.248;149.138;2022-09-01T09:35:52;1.25;;;1.10;;
41532;SDS011;27262;-35.248;149.138;2022-09-01T09:38:28;1.83;;;1.08;;
41532;SDS011;27262;-35.248;149.138;2022-09-01T09:43:55;1.05;;;1.00;;
41532;SDS011;27262;-35.248;149.138;2022-09-01T09:46:44;1.85;;;1.13;;
41532;SDS011;27262;-35.248;149.138;2022-09-01T09:57:37;2.97;;;1.20;;
41532;SDS011;27262;-35.248;149.138;2022-09-01T10:03:01;1.30;;;0.98;;
41532;SDS011;27262;-35.248;149.138;2022-09-01T10:05:40;1.10;;;1.00;;
41532;SDS011;27262;-35.248;149.138;2022-09-01T10:08:58;1.58;;;0.82;;
41532;SDS011;27262;-35.248;149.138;2022-09-01T10:11:33;0.95;;;0.90;;
41532;SDS011;27262;-35.248;149.138;2022-09-01T10:14:12;1.00;;;0.90;;
41532;SDS011;27262;-35.248;149.138;2022-09-01T10:17:11;1.08;;;0.80;;
41532;SDS011;27262;-35.248;149.138;2022-09-01T10:19:47;1.35;;;0.70;;
41532;SDS011;27262;-35.248;149.138;2022-09-01T10:22:24;2.05;;;1.10;;
41532;SDS011;27262;-35.248;149.138;2022-09-01T10:24:54;0.90;;;0.80;;
41532;SDS011;27262;-35.248;149.138;2022-09-01T10:27:27;3.60;;;0.95;;
41532;SDS011;27262;-35.248;149.138;2022-09-01T10:30:05;6.50;;;1.10;;
41532;SDS011;27262;-35.248;149.138;2022-09-01T10:32:47;3.30;;;1.00;;
41532;SDS011;27262;-35.248;149.138;2022-09-01T10:35:30;4.90;;;0.95;;
41532;SDS011;27262;-35.248;149.138;2022-09-01T10:38:10;2.75;;;1.00;;
41532;SDS011;27262;-35.248;149.138;2022-09-01T10:40:58;1.63;;;1.20;;
41532;SDS011;27262;-35.248;149.138;2022-09-01T10:43:45;4.15;;;1.00;;
41532;SDS011;27262;-35.248;149.138;2022-09-01T10:46:40;2.22;;;0.80;;
41532;SDS011;27262;-35.248;149.138;2022-09-01T10:52:01;1.85;;;0.98;;
41532;SDS011;27262;-35.248;149.138;2022-09-01T11:00:14;2.60;;;0.95;;
41532;SDS011;27262;-35.248;149.138;2022-09-01T11:05:58;2.38;;;0.88;;
41532;SDS011;27262;-35.248;149.138;2022-09-01T11:08:55;1.73;;;1.17;;
41532;SDS011;27262;-35.248;149.138;2022-09-01T11:14:23;1.25;;;1.00;;
41532;SDS011;27262;-35.248;149.138;2022-09-01T11:33:40;3.58;;;1.63;;
41532;SDS011;27262;-35.248;149.138;2022-09-01T11:36:19;1.40;;;1.30;;
41532;SDS011;27262;-35.248;149.138;2022-09-01T11:44:51;2.28;;;1.50;;
41532;SDS011;27262;-35.248;149.138;2022-09-01T11:47:39;1.98;;;1.30;;
41532;SDS011;27262;-35.248;149.138;2022-09-01T11:50:17;1.92;;;1.50;;
41532;SDS011;27262;-35.248;149.138;2022-09-01T11:55:40;1.70;;;1.20;;
41532;SDS011;27262;-35.248;149.138;2022-09-01T11:58:27;1.60;;;1.50;;
41532;SDS011;27262;-35.248;149.138;2022-09-01T12:03:46;1.77;;;1.50;;
41532;SDS011;27262;-35.248;149.138;2022-09-01T12:06:21;1.23;;;1.00;;
41532;SDS011;27262;-35.248;149.138;2022-09-01T12:08:59;1.95;;;1.40;;
41532;SDS011;27262;-35.248;149.138;2022-09-01T12:11:33;1.33;;;1.23;;
41532;SDS011;27262;-35.248;149.138;2022-09-01T12:14:05;1.35;;;1.25;;
41532;SDS011;27262;-35.248;149.138;2022-09-01T12:16:40;4.07;;;1.67;;
41532;SDS011;27262;-35.248;149.138;2022-09-01T12:19:21;1.80;;;1.30;;
41532;SDS011;27262;-35.248;149.138;2022-09-01T12:22:02;3.38;;;1.35;;
41532;SDS011;27262;-35.248;149.138;2022-09-01T12:24:46;1.30;;;1.20;;
41532;SDS011;27262;-35.248;149.138;2022-09-01T12:27:20;2.78;;;1.40;;
41532;SDS011;27262;-35.248;149.138;2022-09-01T12:29:50;2.47;;;1.13;;
41532;SDS011;27262;-35.248;149.138;2022-09-01T12:32:21;3.22;;;1.67;;
41532;SDS011;27262;-35.248;149.138;2022-09-01T12:35:01;3.30;;;1.55;;
41532;SDS011;27262;-35.248;149.138;2022-09-01T12:37:37;1.65;;;1.35;;
41532;SDS011;27262;-35.248;149.138;2022-09-01T12:40:19;2.97;;;1.90;;
41532;SDS011;27262;-35.248;149.138;2022-09-01T12:42:58;1.58;;;1.33;;
41532;SDS011;27262;-35.248;149.138;2022-09-01T12:45:45;3.53;;;1.73;;
41532;SDS011;27262;-35.248;149.138;2022-09-01T12:48:30;5.20;;;1.55;;
41532;SDS011;27262;-35.248;149.138;2022-09-01T12:51:19;2.95;;;1.27;;
41532;SDS011;27262;-35.248;149.138;2022-09-01T12:53:58;6.43;;;2.30;;
41532;SDS011;27262;-35.248;149.138;2022-09-01T12:56:36;6.78;;;2.35;;
41532;SDS011;27262;-35.248;149.138;2022-09-01T12:59:13;5.05;;;2.47;;
41532;SDS011;27262;-35.248;149.138;2022-09-01T13:05:16;4.45;;;2.00;;
41532;SDS011;27262;-35.248;149.138;2022-09-01T13:08:11;7.75;;;2.60;;
41532;SDS011;27262;-35.248;149.138;2022-09-01T13:10:49;6.25;;;2.25;;
41532;SDS011;27262;-35.248;149.138;2022-09-01T13:13:22;4.63;;;1.80;;
41532;SDS011;27262;-35.248;149.138;2022-09-01T13:15:54;6.22;;;2.00;;
41532;SDS011;27262;-35.248;149.138;2022-09-01T13:18:31;5.35;;;2.10;;
41532;SDS011;27262;-35.248;149.138;2022-09-01T13:21:22;5.95;;;2.15;;
41532;SDS011;27262;-35.248;149.138;2022-09-01T13:23:52;6.13;;;2.17;;
41532;SDS011;27262;-35.248;149.138;2022-09-01T13:26:23;5.53;;;2.17;;
41532;SDS011;27262;-35.248;149.138;2022-09-01T13:28:53;7.88;;;1.80;;
41532;SDS011;27262;-35.248;149.138;2022-09-01T13:31:24;6.35;;;2.22;;
41532;SDS011;27262;-35.248;149.138;2022-09-01T13:33:58;4.90;;;2.05;;
41532;SDS011;27262;-35.248;149.138;2022-09-01T13:36:36;4.05;;;1.80;;
41532;SDS011;27262;-35.248;149.138;2022-09-01T13:39:11;3.17;;;1.63;;
41532;SDS011;27262;-35.248;149.138;2022-09-01T13:41:42;6.35;;;2.13;;
41532;SDS011;27262;-35.248;149.138;2022-09-01T13:44:12;4.78;;;2.28;;
41532;SDS011;27262;-35.248;149.138;2022-09-01T13:46:43;3.63;;;1.98;;
41532;SDS011;27262;-35.248;149.138;2022-09-01T13:49:34;4.13;;;1.83;;
41532;SDS011;27262;-35.248;149.138;2022-09-01T13:52:25;5.85;;;2.50;;
41532;SDS011;27262;-35.248;149.138;2022-09-01T13:54:55;5.47;;;2.10;;
41532;SDS011;27262;-35.248;149.138;2022-09-01T13:57:25;4.63;;;2.15;;
41532;SDS011;27262;-35.248;149.138;2022-09-01T14:00:02;4.53;;;1.88;;
41532;SDS011;27262;-35.248;149.138;2022-09-01T14:02:35;4.25;;;1.88;;
41532;SDS011;27262;-35.248;149.138;2022-09-01T14:05:07;5.85;;;1.77;;
41532;SDS011;27262;-35.248;149.138;2022-09-01T14:07:38;5.05;;;2.30;;
41532;SDS011;27262;-35.248;149.138;2022-09-01T14:10:08;6.22;;;2.17;;
41532;SDS011;27262;-35.248;149.138;2022-09-01T14:12:39;7.28;;;2.58;;
41532;SDS011;27262;-35.248;149.138;2022-09-01T14:15:10;5.00;;;1.88;;
41532;SDS011;27262;-35.248;149.138;2022-09-01T14:17:45;6.30;;;2.22;;
41532;SDS011;27262;-35.248;149.138;2022-09-01T14:20:18;5.10;;;2.17;;
41532;SDS011;27262;-35.248;149.138;2022-09-01T14:22:51;3.20;;;2.10;;
41532;SDS011;27262;-35.248;149.138;2022-09-01T14:25:23;4.53;;;1.92;;
41532;SDS011;27262;-35.248;149.138;2022-09-01T14:27:54;5.60;;;2.17;;
41532;SDS011;27262;-35.248;149.138;2022-09-01T14:30:25;3.50;;;1.60;;
41532;SDS011;27262;-35.248;149.138;2022-09-01T14:32:58;3.45;;;1.55;;
41532;SDS011;27262;-35.248;149.138;2022-09-01T14:35:29;4.68;;;1.50;;
41532;SDS011;27262;-35.248;149.138;2022-09-01T14:38:01;4.60;;;1.83;;
41532;SDS011;27262;-35.248;149.138;2022-09-01T14:40:33;3.60;;;1.65;;
41532;SDS011;27262;-35.248;149.138;2022-09-01T14:43:06;3.38;;;1.65;;
41532;SDS011;27262;-35.248;149.138;2022-09-01T14:45:40;3.60;;;1.70;;
41532;SDS011;27262;-35.248;149.138;2022-09-01T14:48:16;3.55;;;1.95;;
41532;SDS011;27262;-35.248;149.138;2022-09-01T14:50:48;2.67;;;1.70;;
41532;SDS011;27262;-35.248;149.138;2022-09-01T14:53:18;3.40;;;1.42;;
41532;SDS011;27262;-35.248;149.138;2022-09-01T14:55:51;3.50;;;1.58;;
41532;SDS011;27262;-35.248;149.138;2022-09-01T14:58:23;2.75;;;1.63;;
41532;SDS011;27262;-35.248;149.138;2022-09-01T15:00:54;5.85;;;2.05;;
41532;SDS011;27262;-35.248;149.138;2022-09-01T15:03:46;3.40;;;1.83;;
41532;SDS011;27262;-35.248;149.138;2022-09-01T15:06:17;3.72;;;1.95;;
41532;SDS011;27262;-35.248;149.138;2022-09-01T15:08:49;4.40;;;2.05;;
41532;SDS011;27262;-35.248;149.138;2022-09-01T15:11:19;3.13;;;1.83;;
41532;SDS011;27262;-35.248;149.138;2022-09-01T15:13:49;2.75;;;1.55;;
41532;SDS011;27262;-35.248;149.138;2022-09-01T15:16:21;2.33;;;1.50;;
41532;SDS011;27262;-35.248;149.138;2022-09-01T15:18:53;6.13;;;2.38;;
41532;SDS011;27262;-35.248;149.138;2022-09-01T15:21:25;3.83;;;1.80;;
41532;SDS011;27262;-35.248;149.138;2022-09-01T15:24:02;3.58;;;2.05;;
41532;SDS011;27262;-35.248;149.138;2022-09-01T15:26:33;5.03;;;2.00;;
41532;SDS011;27262;-35.248;149.138;2022-09-01T15:29:06;3.05;;;2.00;;
41532;SDS011;27262;-35.248;149.138;2022-09-01T15:31:40;4.00;;;1.67;;
41532;SDS011;27262;-35.248;149.138;2022-09-01T15:34:11;3.05;;;1.63;;
41532;SDS011;27262;-35.248;149.138;2022-09-01T15:36:42;3.53;;;1.83;;
41532;SDS011;27262;-35.248;149.138;2022-09-01T15:39:12;2.95;;;1.83;;
41532;SDS011;27262;-35.248;149.138;2022-09-01T15:41:43;4.13;;;1.95;;
41532;SDS011;27262;-35.248;149.138;2022-09-01T15:44:14;4.93;;;2.40;;
41532;SDS011;27262;-35.248;149.138;2022-09-01T15:46:47;3.35;;;1.60;;
41532;SDS011;27262;-35.248;149.138;2022-09-01T15:49:18;2.67;;;1.60;;
41532;SDS011;27262;-35.248;149.138;2022-09-01T15:51:48;3.08;;;1.63;;
41532;SDS011;27262;-35.248;149.138;2022-09-01T15:54:18;2.40;;;1.40;;
41532;SDS011;27262;-35.248;149.138;2022-09-01T15:56:55;4.18;;;1.70;;
41532;SDS011;27262;-35.248;149.138;2022-09-01T15:59:25;2.78;;;1.60;;
41532;SDS011;27262;-35.248;149.138;2022-09-01T16:01:56;3.28;;;2.00;;
41532;SDS011;27262;-35.248;149.138;2022-09-01T16:04:26;2.65;;;1.40;;
41532;SDS011;27262;-35.248;149.138;2022-09-01T16:06:56;3.25;;;1.58;;
41532;SDS011;27262;-35.248;149.138;2022-09-01T16:09:27;4.72;;;1.75;;
41532;SDS011;27262;-35.248;149.138;2022-09-01T16:11:57;4.53;;;1.98;;
41532;SDS011;27262;-35.248;149.138;2022-09-01T16:14:28;3.50;;;1.48;;
41532;SDS011;27262;-35.248;149.138;2022-09-01T16:17:02;3.78;;;2.00;;
41532;SDS011;27262;-35.248;149.138;2022-09-01T16:22:29;2.83;;;1.65;;